Time;durP1;ratioP1;P1;durP2;ratioP2;P2;SDS_P1;SDS_P2;PMS_P1;PMS_P2;Temp;Humidity;BMP_temperature;BMP_pressure;BME280_temperature;BME280_humidity;BME280_pressure;Samples;Min_cycle;Max_cycle;Signal;HPM_P1;HPM_P2
2022/01/21 00:00:38;;;;;;;;;5.75;5.75;;;;;8.19;57.36;103046.41;2096333;28;46300;-62
2022/01/21 00:01:40;;;;;;;;;5.50;5.00;;;;;8.17;56.92;103046.38;2096677;28;47545;-61
2022/01/21 00:02:40;;;;;;;;;5.20;5.20;;;;;8.18;57.36;103049.91;2096613;28;47619;-61
2022/01/21 00:03:42;;;;;;;;;7.00;6.75;;;;;8.17;57.34;103050.78;2095843;28;46848;-62
2022/01/21 00:04:42;;;;;;;;;7.80;7.40;;;;;8.17;57.30;103049.03;2095955;28;46053;-61
2022/01/21 00:05:43;;;;;;;;;7.75;7.25;;;;;8.17;57.39;103046.38;2096677;28;47280;-61
2022/01/21 00:06:43;;;;;;;;;9.00;6.00;;;;;8.16;57.34;103052.53;2096742;28;47512;-61
2022/01/21 00:07:44;;;;;;;;;5.00;3.00;;;;;8.16;57.33;103048.97;2096657;28;47434;-61
2022/01/21 00:08:46;;;;;;;;;6.00;5.00;;;;;8.17;57.38;103050.78;2096522;28;47427;-61
2022/01/21 00:09:48;;;;;;;;;4.00;4.00;;;;;8.17;57.20;103050.78;2096681;28;47465;-61
2022/01/21 00:10:50;;;;;;;;;6.60;6.60;;;;;8.14;57.43;103051.59;2096360;28;47518;-60
2022/01/21 00:11:51;;;;;;;;;7.40;6.40;;;;;8.15;57.24;103055.13;2096562;28;47717;-62
2022/01/21 00:12:53;;;;;;;;;6.25;6.00;;;;;8.14;57.42;103050.69;2087778;28;47253;-62
2022/01/21 00:13:54;;;;;;;;;10.40;6.00;;;;;8.12;57.51;103047.97;2087751;28;47447;-62
2022/01/21 00:14:54;;;;;;;;;4.00;4.00;;;;;8.13;57.60;103051.53;2096358;28;47479;-61
2022/01/21 00:15:55;;;;;;;;;7.50;7.25;;;;;8.13;57.45;103048.88;2096797;28;47612;-62
2022/01/21 00:16:55;;;;;;;;;5.50;5.50;;;;;8.11;57.35;103045.31;2095001;28;47202;-63
2022/01/21 00:17:56;;;;;;;;;5.75;5.75;;;;;8.10;57.55;103040.88;2088644;28;46761;-62
2022/01/21 00:19:08;;;;;;;;;5.50;5.50;;;;;8.09;57.34;103047.03;2088450;28;47640;-62
2022/01/21 00:30:44;;;;;;;;;5.40;5.40;;;;;8.03;57.58;103033.66;2092601;28;47873;-61
2022/01/21 00:31:44;;;;;;;;;5.25;5.25;;;;;8.01;57.57;103025.69;2096533;28;47625;-63
2022/01/21 00:32:47;;;;;;;;;9.00;7.50;;;;;8.01;57.69;103030.97;2094425;28;47081;-62
2022/01/21 00:33:47;;;;;;;;;8.80;7.80;;;;;8.01;57.78;103025.69;2096121;28;47349;-61
2022/01/21 00:34:48;;;;;;;;;5.75;5.75;;;;;8.02;57.72;103035.41;2096378;28;47664;-62
2022/01/21 00:35:48;;;;;;;;;9.25;7.00;;;;;8.03;57.60;103031.00;2095947;28;47816;-61
2022/01/21 00:36:48;;;;;;;;;6.75;6.75;;;;;8.03;57.66;103036.31;2096314;28;46191;-63
2022/01/21 00:37:49;;;;;;;;;8.75;8.75;;;;;8.02;57.91;103023.94;2096382;28;47230;-62
2022/01/21 00:38:49;;;;;;;;;8.33;8.00;;;;;8.02;57.73;103026.59;2096433;28;47636;-62
2022/01/21 00:39:55;;;;;;;;;9.50;6.00;;;;;8.01;57.68;103022.16;2096460;28;46501;-62
2022/01/21 00:40:59;;;;;;;;;6.80;6.00;;;;;8.02;57.77;103023.94;2096519;28;47324;-62
2022/01/21 00:43:15;;;;;;;;;8.00;6.80;;;;;8.02;57.82;103024.84;2087537;28;47494;-62
2022/01/21 00:44:16;;;;;;;;;9.20;7.20;;;;;8.03;58.10;103025.72;2088732;28;47154;-61
2022/01/21 00:45:18;;;;;;;;;7.00;7.00;;;;;8.03;57.66;103031.00;2096488;28;47979;-61
2022/01/21 00:46:19;;;;;;;;;7.40;7.40;;;;;8.02;57.78;103027.47;2087480;28;47358;-61
2022/01/21 00:47:19;;;;;;;;;10.00;8.75;;;;;8.01;57.77;103020.41;2087486;28;46273;-62
2022/01/21 00:48:20;;;;;;;;;6.00;6.00;;;;;8.01;57.95;103020.41;2087216;28;46644;-62
2022/01/21 00:49:21;;;;;;;;;9.67;8.67;;;;;8.02;57.86;103018.66;2087410;28;47367;-61
2022/01/21 00:50:21;;;;;;;;;16.25;12.00;;;;;8.01;57.83;103020.41;2087173;28;47779;-61
2022/01/21 00:51:21;;;;;;;;;9.50;6.00;;;;;8.01;57.99;103017.75;2087399;28;46257;-62
2022/01/21 00:52:22;;;;;;;;;11.50;10.25;;;;;8.01;58.02;103017.75;2096375;28;47089;-61
2022/01/21 00:53:23;;;;;;;;;12.50;8.75;;;;;8.03;58.01;103021.34;2096185;28;47647;-62
2022/01/21 00:54:23;;;;;;;;;5.75;5.75;;;;;8.03;58.10;103025.72;2096430;28;47147;-62
2022/01/21 00:55:24;;;;;;;;;9.25;9.25;;;;;8.03;57.98;103023.97;2096076;28;47590;-62
2022/01/21 00:56:24;;;;;;;;;7.25;6.00;;;;;8.03;57.99;103026.63;2096413;28;47282;-62
2022/01/21 00:57:24;;;;;;;;;9.75;6.25;;;;;8.04;57.83;103028.41;2096400;28;47214;-62
2022/01/21 00:58:25;;;;;;;;;8.50;8.50;;;;;8.03;58.35;103029.25;2096252;28;46912;-60
2022/01/21 00:59:25;;;;;;;;;5.50;5.50;;;;;8.04;57.92;103028.41;2096413;28;47447;-61
2022/01/21 01:00:26;;;;;;;;;5.67;5.67;;;;;8.05;57.89;103026.66;2088673;28;47676;-61
2022/01/21 01:01:26;;;;;;;;;12.50;9.00;;;;;8.05;57.93;103026.66;2090299;28;47542;-61
2022/01/21 01:02:28;;;;;;;;;6.25;6.25;;;;;8.05;57.81;103027.53;2096169;28;47132;-61
2022/01/21 01:03:29;;;;;;;;;7.00;5.25;;;;;8.05;57.92;103032.84;2096407;28;46941;-61
2022/01/21 01:04:29;;;;;;;;;7.67;7.33;;;;;8.06;57.81;103031.09;2087257;28;47782;-61
2022/01/21 01:05:30;;;;;;;;;4.75;4.75;;;;;8.07;57.93;103027.59;2087259;28;47542;-60
2022/01/21 01:06:31;;;;;;;;;7.00;7.00;;;;;8.09;57.92;103031.16;2096219;28;47570;-60
2022/01/21 01:07:32;;;;;;;;;7.75;5.75;;;;;8.09;58.06;103029.41;2096096;28;47700;-62
2022/01/21 01:08:32;;;;;;;;;9.50;8.75;;;;;8.09;57.94;103032.03;2096267;28;47245;-61
2022/01/21 01:09:34;;;;;;;;;9.50;9.00;;;;;8.10;57.74;103032.94;2096211;28;47169;-61
2022/01/21 01:12:21;;;;;;;;;8.80;8.80;;;;;8.10;57.47;103025.91;2087447;28;47339;-61
2022/01/21 01:19:56;;;;;;;;;2.60;2.60;;;;;8.12;57.89;103023.28;2095698;28;47706;-61
2022/01/21 01:20:57;;;;;;;;;8.20;5.80;;;;;8.10;58.18;103017.97;2096283;28;47330;-61
2022/01/21 01:21:58;;;;;;;;;6.50;6.50;;;;;8.10;57.95;103020.63;2095883;28;47797;-61
2022/01/21 01:23:10;;;;;;;;;7.25;7.25;;;;;8.11;57.92;103024.16;2091906;28;47360;-61
2022/01/21 01:27:52;;;;;;;;;10.40;10.40;;;;;8.10;58.02;103017.97;2086192;28;46719;-61
2022/01/21 01:28:53;;;;;;;;;11.00;10.20;;;;;8.10;57.92;103015.31;2087797;28;47573;-61
2022/01/21 01:29:54;;;;;;;;;9.00;7.50;;;;;8.10;57.94;103017.06;2087347;28;47185;-61
2022/01/21 01:30:54;;;;;;;;;9.20;9.20;;;;;8.10;58.00;103019.72;2088069;28;47163;-62
2022/01/21 01:31:55;;;;;;;;;5.67;5.67;;;;;8.09;58.00;103018.81;2087800;28;47034;-61
2022/01/21 01:32:58;;;;;;;;;8.50;7.25;;;;;8.10;58.04;103022.38;2085410;28;47177;-61
2022/01/21 01:34:01;;;;;;;;;10.00;8.00;;;;;8.09;57.95;103024.13;2087392;28;47488;-61
2022/01/21 01:35:01;;;;;;;;;10.20;8.40;;;;;8.09;57.94;103026.75;2096090;28;47791;-62
2022/01/21 01:36:05;;;;;;;;;5.75;5.25;;;;;8.09;57.92;103023.22;2087054;28;47395;-62
2022/01/21 01:37:14;;;;;;;;;7.40;5.00;;;;;8.07;57.88;103024.94;2087271;28;47716;-61
2022/01/21 01:39:32;;;;;;;;;10.50;6.25;;;;;8.07;57.83;103030.22;2092185;28;47354;-61
2022/01/21 01:41:49;;;;;;;;;8.00;5.75;;;;;8.06;57.87;103023.16;2096366;28;46734;-60
2022/01/21 01:50:25;;;;;;;;;10.80;9.20;;;;;8.05;57.86;103029.28;2091505;28;47578;-61
2022/01/21 01:51:27;;;;;;;;;6.75;6.75;;;;;8.04;57.94;103024.88;2087865;28;47002;-61
2022/01/21 01:52:27;;;;;;;;;10.40;6.40;;;;;8.03;57.92;103028.38;2095856;28;47915;-61
2022/01/21 01:53:59;;;;;;;;;7.33;6.00;;;;;8.02;58.08;103027.47;2092993;28;47642;-61
2022/01/21 01:55:00;;;;;;;;;3.75;2.75;;;;;8.01;58.02;103030.09;2087366;28;47286;-61
2022/01/21 01:56:03;;;;;;;;;10.25;8.00;;;;;8.00;57.85;103026.50;2087798;28;47164;-61
2022/01/21 01:57:04;;;;;;;;;9.25;8.50;;;;;8.00;57.96;103028.25;2093880;28;47763;-61
2022/01/21 01:58:05;;;;;;;;;10.00;9.20;;;;;7.99;58.14;103032.66;2094904;28;47134;-61
2022/01/21 01:59:06;;;;;;;;;6.00;6.00;;;;;7.97;57.94;103032.63;2096168;28;45049;-61
2022/01/21 02:00:07;;;;;;;;;6.33;6.33;;;;;7.97;57.80;103029.97;2095777;28;47681;-61
2022/01/21 02:01:08;;;;;;;;;6.25;6.25;;;;;7.96;57.98;103033.47;2095808;28;47681;-60
2022/01/21 02:02:14;;;;;;;;;5.00;5.00;;;;;7.95;58.07;103028.16;2095785;28;47976;-61
2022/01/21 02:03:15;;;;;;;;;6.40;6.40;;;;;7.94;58.02;103034.31;2095749;28;47225;-61
2022/01/21 02:04:16;;;;;;;;;9.60;7.60;;;;;7.93;58.02;103025.47;2096073;28;46528;-61
2022/01/21 02:05:17;;;;;;;;;9.00;9.00;;;;;7.92;57.95;103028.09;2095726;28;47872;-60
2022/01/21 02:06:17;;;;;;;;;10.33;9.00;;;;;7.93;58.33;103030.75;2095931;28;47393;-60
2022/01/21 02:07:18;;;;;;;;;6.00;6.00;;;;;7.92;57.97;103031.63;2095944;28;47185;-61
2022/01/21 02:08:18;;;;;;;;;11.00;7.50;;;;;7.92;57.96;103034.25;2095917;28;47741;-62
2022/01/21 02:09:20;;;;;;;;;5.67;5.33;;;;;7.91;58.01;103032.47;2095924;28;47616;-60
2022/01/21 02:10:20;;;;;;;;;8.50;7.75;;;;;7.91;58.01;103029.84;2096105;28;47865;-61
2022/01/21 02:11:21;;;;;;;;;6.33;6.33;;;;;7.90;57.86;103035.09;2095942;28;47001;-61
2022/01/21 02:12:21;;;;;;;;;5.00;5.00;;;;;7.88;58.19;103035.06;2095929;28;47649;-61
2022/01/21 02:13:26;;;;;;;;;6.67;6.67;;;;;7.88;58.02;103032.41;2095758;28;47681;-61
2022/01/21 02:14:30;;;;;;;;;5.25;4.50;;;;;7.88;58.16;103032.41;2095662;28;47756;-61
2022/01/21 02:15:38;;;;;;;;;4.25;4.25;;;;;7.87;58.02;103035.88;2086787;28;46442;-61
2022/01/21 02:21:56;;;;;;;;;7.80;6.40;;;;;7.80;58.35;103031.28;2095656;28;46971;-62
2022/01/21 02:22:57;;;;;;;;;6.50;5.00;;;;;7.80;58.07;103041.88;2091695;28;47648;-61
2022/01/21 02:24:01;;;;;;;;;10.00;9.00;;;;;7.80;58.17;103038.34;2087404;28;47741;-60
2022/01/21 02:25:15;;;;;;;;;7.00;5.60;;;;;7.79;58.27;103028.63;2079330;28;47531;-61
2022/01/21 02:26:16;;;;;;;;;8.40;7.00;;;;;7.77;58.08;103032.97;2082865;28;47889;-62
2022/01/21 02:27:17;;;;;;;;;6.75;5.50;;;;;7.78;58.16;103030.38;2096300;28;47719;-62
2022/01/21 02:28:18;;;;;;;;;10.00;9.00;;;;;7.77;58.10;103025.03;2087728;28;48039;-60
2022/01/21 02:29:28;;;;;;;;;7.80;7.20;;;;;7.77;58.29;103036.50;2086988;28;47285;-61
2022/01/21 02:30:29;;;;;;;;;9.80;8.40;;;;;7.76;58.30;103029.44;2087341;28;47290;-60
2022/01/21 02:31:30;;;;;;;;;8.33;7.00;;;;;7.76;58.29;103029.44;2093054;28;47114;-61
2022/01/21 02:32:31;;;;;;;;;6.60;5.60;;;;;7.75;58.38;103034.66;2094950;28;48030;-61
2022/01/21 02:33:31;;;;;;;;;5.75;5.75;;;;;7.74;58.33;103030.22;2086850;28;47498;-62
2022/01/21 02:34:32;;;;;;;;;8.00;8.00;;;;;7.74;58.24;103031.13;2084738;28;47318;-60
2022/01/21 02:35:32;;;;;;;;;5.25;5.25;;;;;7.73;58.23;103039.00;2095921;28;47661;-60
2022/01/21 02:36:33;;;;;;;;;5.00;5.00;;;;;7.73;58.29;103036.38;2095958;28;46868;-60
2022/01/21 02:37:33;;;;;;;;;10.00;10.00;;;;;7.72;58.35;103031.94;2095677;28;47593;-62
2022/01/21 02:38:34;;;;;;;;;7.50;7.00;;;;;7.71;58.28;103035.44;2095745;28;47247;-61
2022/01/21 02:39:34;;;;;;;;;6.75;5.00;;;;;7.72;58.45;103034.56;2095780;28;47778;-60
2022/01/21 02:40:35;;;;;;;;;9.75;5.75;;;;;7.72;58.20;103031.94;2095708;28;47988;-61
2022/01/21 02:41:35;;;;;;;;;7.50;6.00;;;;;7.71;58.52;103031.03;2086856;28;46516;-61
2022/01/21 02:42:36;;;;;;;;;8.50;8.50;;;;;7.71;58.43;103028.41;2086712;28;47493;-61
2022/01/21 02:43:36;;;;;;;;;7.25;7.25;;;;;7.70;58.45;103034.53;2095914;28;47227;-61
2022/01/21 02:44:38;;;;;;;;;4.25;4.25;;;;;7.70;58.24;103031.91;2095688;28;47189;-61
2022/01/21 02:45:44;;;;;;;;;6.60;6.60;;;;;7.69;58.39;103027.47;2095693;28;47484;-60
2022/01/21 02:46:47;;;;;;;;;8.20;7.20;;;;;7.69;58.16;103027.47;2095296;28;47173;-60
2022/01/21 02:47:47;;;;;;;;;6.80;6.80;;;;;7.67;58.28;103032.72;2095837;28;48146;-61
2022/01/21 02:48:49;;;;;;;;;8.50;8.50;;;;;7.67;58.37;103030.06;2095770;28;47263;-61
2022/01/21 02:49:50;;;;;;;;;7.80;5.20;;;;;7.67;58.43;103032.72;2095431;28;47571;-60
2022/01/21 02:50:50;;;;;;;;;6.00;6.00;;;;;7.67;58.49;103040.66;2095171;28;47449;-61
2022/01/21 02:51:52;;;;;;;;;6.00;6.00;;;;;7.66;58.26;103030.94;2095662;28;47429;-61
2022/01/21 02:53:08;;;;;;;;;10.40;8.00;;;;;7.65;58.34;103039.72;2095801;28;46174;-60
2022/01/21 02:54:12;;;;;;;;;7.80;7.80;;;;;7.65;58.61;103030.91;2095904;28;47087;-61
2022/01/21 02:55:12;;;;;;;;;8.00;8.00;;;;;7.64;58.55;103039.69;2095626;28;47361;-61
2022/01/21 02:56:16;;;;;;;;;6.00;4.75;;;;;7.65;58.51;103034.44;2096218;28;46499;-61
2022/01/21 02:57:17;;;;;;;;;7.20;6.60;;;;;7.65;58.51;103029.16;2089439;28;47229;-60
2022/01/21 02:58:17;;;;;;;;;7.00;5.50;;;;;7.64;58.35;103032.63;2091685;28;47103;-61
2022/01/21 02:59:18;;;;;;;;;7.25;4.25;;;;;7.65;58.51;103036.19;2096914;28;47178;-61
2022/01/21 03:00:18;;;;;;;;;9.00;8.00;;;;;7.65;58.53;103030.91;2097194;28;47084;-61
2022/01/21 03:01:19;;;;;;;;;6.00;5.25;;;;;7.66;58.36;103032.69;2096761;28;47481;-60
2022/01/21 03:02:19;;;;;;;;;8.75;5.00;;;;;7.66;58.51;103037.97;2097031;28;47246;-60
2022/01/21 03:03:19;;;;;;;;;4.25;4.25;;;;;7.65;58.48;103039.72;2096928;28;47390;-61
2022/01/21 03:05:12;;;;;;;;;7.25;7.25;;;;;7.65;58.31;103044.09;2096727;28;47132;-61
2022/01/21 03:05:41;;;;;;;;;10.60;10.20;;;;;7.64;58.45;103037.94;2084221;28;47902;-60
2022/01/21 03:06:42;;;;;;;;;9.50;9.25;;;;;7.63;58.36;103036.13;2094434;28;47276;-61
2022/01/21 03:07:43;;;;;;;;;8.25;7.50;;;;;7.63;58.53;103041.41;2096888;28;47678;-61
2022/01/21 03:08:46;;;;;;;;;8.00;7.20;;;;;7.63;58.61;103030.84;2097064;28;47271;-60
2022/01/21 03:09:46;;;;;;;;;9.00;8.80;;;;;7.63;58.61;103035.25;2096983;28;47667;-61
2022/01/21 03:10:47;;;;;;;;;5.00;5.00;;;;;7.63;58.75;103037.88;2097202;28;46640;-62
2022/01/21 03:11:47;;;;;;;;;5.00;5.00;;;;;7.63;58.53;103041.41;2096961;28;47345;-61
2022/01/21 03:12:48;;;;;;;;;7.00;5.50;;;;;7.62;58.66;103037.00;2097269;28;47359;-59
2022/01/21 03:13:49;;;;;;;;;11.00;8.75;;;;;7.62;58.54;103034.34;2087916;28;47320;-60
2022/01/21 03:14:49;;;;;;;;;7.33;6.00;;;;;7.62;58.55;103041.34;2087721;28;47273;-61
2022/01/21 03:15:51;;;;;;;;;4.00;4.00;;;;;7.61;58.65;103035.19;2096613;28;47107;-61
2022/01/21 03:16:52;;;;;;;;;7.40;6.80;;;;;7.61;58.47;103036.91;2097059;28;47614;-61
2022/01/21 03:17:53;;;;;;;;;5.75;5.75;;;;;7.61;58.84;103036.91;2097046;28;48186;-60
2022/01/21 03:18:53;;;;;;;;;7.25;4.75;;;;;7.60;58.50;103037.78;2088348;28;47098;-61
2022/01/21 03:19:54;;;;;;;;;8.00;6.50;;;;;7.59;58.71;103038.63;2087697;28;47287;-61
2022/01/21 03:20:54;;;;;;;;;7.50;7.50;;;;;7.58;58.42;103036.84;2097054;28;47159;-60
2022/01/21 03:21:54;;;;;;;;;9.75;6.75;;;;;7.58;58.49;103036.84;2096874;28;47760;-60
2022/01/21 03:22:55;;;;;;;;;6.50;6.50;;;;;7.57;58.55;103035.94;2092999;28;47230;-60
2022/01/21 03:23:55;;;;;;;;;8.33;6.00;;;;;7.57;58.72;103038.59;2088648;28;47052;-61
2022/01/21 03:24:56;;;;;;;;;10.67;9.00;;;;;7.56;58.47;103038.56;2088436;28;45999;-60
2022/01/21 03:25:57;;;;;;;;;7.50;6.75;;;;;7.56;58.62;103043.84;2090026;28;47738;-61
2022/01/21 03:26:57;;;;;;;;;9.75;9.75;;;;;7.56;58.41;103044.72;2096189;28;47306;-61
2022/01/21 03:27:57;;;;;;;;;8.00;7.25;;;;;7.55;58.37;103042.94;2091015;28;47209;-61
2022/01/21 03:29:01;;;;;;;;;10.25;10.25;;;;;7.54;58.61;103054.38;2096637;28;47096;-60
2022/01/21 03:30:04;;;;;;;;;12.00;10.80;;;;;7.54;58.48;103049.09;2096688;28;47486;-61
2022/01/21 03:31:05;;;;;;;;;9.80;9.80;;;;;7.53;58.56;103049.94;2096648;28;47621;-61
2022/01/21 03:32:05;;;;;;;;;10.50;8.75;;;;;7.52;58.52;103045.50;2096995;28;47298;-61
2022/01/21 03:33:06;;;;;;;;;10.25;10.25;;;;;7.51;58.48;103046.38;2096877;28;47053;-61
2022/01/21 03:34:07;;;;;;;;;10.50;9.00;;;;;7.51;58.81;103045.47;2096887;28;47041;-61
2022/01/21 03:35:08;;;;;;;;;10.00;10.00;;;;;7.50;58.47;103044.56;2096920;28;47578;-60
2022/01/21 03:36:09;;;;;;;;;12.00;11.50;;;;;7.50;58.48;103047.22;2095824;28;47214;-61
2022/01/21 03:37:09;;;;;;;;;10.60;9.60;;;;;7.48;58.56;103040.06;2096616;28;46983;-62
2022/01/21 03:38:10;;;;;;;;;10.50;10.50;;;;;7.48;58.51;103050.66;2089991;28;47264;-61
2022/01/21 03:39:10;;;;;;;;;9.00;8.00;;;;;7.48;58.53;103050.66;2096680;28;47443;-60
2022/01/21 03:40:11;;;;;;;;;8.00;6.00;;;;;7.48;58.66;103046.25;2094730;28;48020;-62
2022/01/21 03:41:12;;;;;;;;;9.00;9.00;;;;;7.47;58.70;103046.22;2088676;28;48528;-61
2022/01/21 03:42:12;;;;;;;;;10.00;8.00;;;;;7.46;58.76;103047.06;2091881;28;45130;-61
2022/01/21 03:43:14;;;;;;;;;12.75;11.25;;;;;7.46;58.54;103055.00;2096548;28;47006;-61
2022/01/21 03:44:14;;;;;;;;;6.00;6.00;;;;;7.46;58.76;103055.00;2096637;28;48093;-62
2022/01/21 03:45:15;;;;;;;;;10.50;6.25;;;;;7.46;58.74;103063.81;2097008;28;47106;-61
2022/01/21 03:46:16;;;;;;;;;8.25;7.75;;;;;7.46;58.82;103055.88;2096861;28;47019;-61
2022/01/21 03:47:16;;;;;;;;;5.00;5.00;;;;;7.47;58.73;103056.78;2096700;28;47703;-61
2022/01/21 03:48:18;;;;;;;;;9.25;8.00;;;;;7.46;58.83;103049.72;2097270;28;45279;-61
2022/01/21 03:49:18;;;;;;;;;8.40;6.20;;;;;7.45;58.97;103048.81;2096927;28;47477;-60
2022/01/21 03:50:24;;;;;;;;;8.00;7.25;;;;;7.45;58.84;103053.22;2096865;28;47088;-61
2022/01/21 03:51:24;;;;;;;;;8.00;8.00;;;;;7.46;58.81;103057.63;2087861;28;47123;-61
2022/01/21 03:52:25;;;;;;;;;6.75;4.25;;;;;7.45;58.86;103059.38;2087959;28;46073;-61
2022/01/21 03:53:25;;;;;;;;;6.33;6.33;;;;;7.46;58.79;103060.28;2096614;28;47272;-61
2022/01/21 03:54:26;;;;;;;;;8.33;8.33;;;;;7.45;58.66;103053.22;2096881;28;47292;-61
2022/01/21 03:55:28;;;;;;;;;8.75;8.75;;;;;7.45;58.87;103055.84;2096702;28;46516;-61
2022/01/21 03:56:28;;;;;;;;;10.00;6.40;;;;;7.45;58.87;103056.75;2090606;28;46963;-60
2022/01/21 03:57:28;;;;;;;;;5.00;5.00;;;;;7.46;58.79;103049.72;2079435;28;47230;-60
2022/01/21 03:58:29;;;;;;;;;8.75;5.75;;;;;7.45;58.73;103051.47;2094553;28;45076;-60
2022/01/21 03:59:29;;;;;;;;;6.25;6.25;;;;;7.47;59.01;103043.56;2096567;28;47069;-60
2022/01/21 04:00:36;;;;;;;;;6.25;6.25;;;;;7.46;58.89;103050.59;2096415;28;47592;-60
2022/01/21 04:01:36;;;;;;;;;6.60;6.40;;;;;7.47;58.85;103049.75;2096617;28;47267;-60
2022/01/21 04:02:37;;;;;;;;;9.00;7.00;;;;;7.47;58.98;103055.03;2096562;28;47876;-60
2022/01/21 04:03:37;;;;;;;;;11.50;7.75;;;;;7.48;58.89;103051.53;2096732;28;47312;-60
2022/01/21 04:04:38;;;;;;;;;9.00;6.75;;;;;7.47;59.01;103051.50;2096251;28;47404;-60
2022/01/21 04:05:38;;;;;;;;;11.00;10.00;;;;;7.48;58.82;103050.66;2096883;28;47482;-60
2022/01/21 04:06:39;;;;;;;;;5.80;5.60;;;;;7.48;58.92;103046.25;2096443;28;46616;-61
2022/01/21 04:07:39;;;;;;;;;10.75;9.25;;;;;7.49;58.71;103055.97;2095558;28;47442;-61
2022/01/21 04:08:40;;;;;;;;;8.50;8.50;;;;;7.48;58.80;103054.19;2088456;28;47519;-60
2022/01/21 04:09:40;;;;;;;;;9.00;8.50;;;;;7.48;58.91;103055.94;2079419;28;47141;-62
2022/01/21 04:10:42;;;;;;;;;7.00;5.25;;;;;7.48;58.78;103058.56;2079354;28;47117;-60
2022/01/21 04:11:42;;;;;;;;;8.00;7.60;;;;;7.48;58.73;103058.56;2087103;28;47703;-60
2022/01/21 04:12:43;;;;;;;;;8.25;8.25;;;;;7.47;58.80;103057.69;2087837;28;47360;-60
2022/01/21 04:13:45;;;;;;;;;10.00;9.00;;;;;7.48;58.62;103053.28;2096907;28;47743;-60
2022/01/21 04:14:46;;;;;;;;;6.60;6.60;;;;;7.48;58.89;103058.56;2096218;28;47494;-61
2022/01/21 04:15:51;;;;;;;;;9.25;9.25;;;;;7.47;58.75;103057.69;2096396;28;47274;-61
2022/01/21 04:16:51;;;;;;;;;7.60;6.00;;;;;7.47;58.92;103057.69;2096504;28;47336;-61
2022/01/21 04:17:52;;;;;;;;;10.00;9.00;;;;;7.48;58.61;103053.28;2093773;28;47138;-60
2022/01/21 04:18:52;;;;;;;;;5.00;5.00;;;;;7.48;58.90;103058.56;2096336;28;47570;-61
2022/01/21 04:19:53;;;;;;;;;9.25;7.75;;;;;7.47;58.75;103056.78;2096170;28;47344;-60
2022/01/21 04:20:53;;;;;;;;;9.00;8.75;;;;;7.46;58.73;103061.16;2096019;28;47264;-60
2022/01/21 04:21:54;;;;;;;;;6.00;6.00;;;;;7.46;58.81;103060.28;2096756;28;47705;-60
2022/01/21 04:22:54;;;;;;;;;6.33;6.00;;;;;7.46;58.84;103066.47;2092756;28;47136;-61
2022/01/21 04:23:55;;;;;;;;;8.25;8.25;;;;;7.47;59.02;103062.06;2088023;28;47835;-60
2022/01/21 04:24:55;;;;;;;;;8.00;8.00;;;;;7.45;58.85;103066.41;2094788;28;47457;-61
2022/01/21 04:25:56;;;;;;;;;4.75;4.75;;;;;7.45;58.74;103072.59;2094695;28;46169;-60
2022/01/21 04:26:56;;;;;;;;;9.50;7.75;;;;;7.45;58.80;103076.97;2090826;28;47616;-60
2022/01/21 04:27:57;;;;;;;;;9.25;8.00;;;;;7.44;59.03;103069.91;2096310;28;47272;-60
2022/01/21 04:28:57;;;;;;;;;9.00;8.25;;;;;7.45;58.74;103075.22;2091990;28;47227;-60
2022/01/21 04:29:58;;;;;;;;;10.75;6.00;;;;;7.44;58.87;103067.28;2096461;28;47699;-60
2022/01/21 04:30:59;;;;;;;;;5.50;5.50;;;;;7.44;58.94;103070.81;2096320;28;46346;-61
2022/01/21 04:31:59;;;;;;;;;8.00;6.20;;;;;7.44;58.80;103075.19;2094793;28;47132;-60
2022/01/21 04:33:00;;;;;;;;;8.25;8.00;;;;;7.44;58.76;103073.44;2090955;28;47744;-60
2022/01/21 04:34:00;;;;;;;;;9.00;7.75;;;;;7.42;58.91;103069.88;2089953;28;47456;-61
2022/01/21 04:35:01;;;;;;;;;7.25;5.75;;;;;7.43;58.71;103082.22;2096525;28;47685;-61
2022/01/21 04:36:01;;;;;;;;;5.33;5.00;;;;;7.43;58.80;103074.31;2096373;28;47131;-62
2022/01/21 04:37:02;;;;;;;;;5.75;5.00;;;;;7.42;58.90;103068.97;2096527;28;47653;-61
2022/01/21 04:38:06;;;;;;;;;6.80;4.80;;;;;7.41;58.84;103070.72;2096697;28;47865;-61
2022/01/21 04:39:14;;;;;;;;;8.40;7.00;;;;;7.41;59.00;103072.47;2096503;28;47397;-61
2022/01/21 04:40:17;;;;;;;;;5.00;5.00;;;;;7.40;58.84;103070.69;2096530;28;47505;-61
2022/01/21 04:47:11;;;;;;;;;4.80;4.80;;;;;7.40;58.93;103066.28;2096467;28;47304;-61
2022/01/21 04:47:59;;;;;;;;;4.20;4.20;;;;;7.36;58.95;103072.31;2096318;28;47389;-61
2022/01/21 04:48:59;;;;;;;;;6.75;6.00;;;;;7.36;58.75;103074.97;2096522;28;46943;-61
2022/01/21 04:50:01;;;;;;;;;5.00;5.00;;;;;7.35;59.05;103067.88;2096274;28;47571;-61
2022/01/21 04:51:26;;;;;;;;;8.80;6.00;;;;;7.34;58.82;103067.00;2096337;28;47717;-61
2022/01/21 04:52:26;;;;;;;;;6.80;5.60;;;;;7.34;58.99;103056.44;2096449;28;47748;-61
2022/01/21 04:53:30;;;;;;;;;8.75;7.75;;;;;7.34;58.79;103051.16;2096359;28;47181;-61
2022/01/21 04:54:31;;;;;;;;;6.20;6.20;;;;;7.33;58.95;103057.28;2096250;28;47556;-61
2022/01/21 04:55:33;;;;;;;;;11.80;9.80;;;;;7.33;59.19;103059.03;2096325;28;47745;-62
2022/01/21 04:56:34;;;;;;;;;8.40;7.60;;;;;7.33;59.13;103064.31;2100153;28;47802;-61
2022/01/21 04:57:35;;;;;;;;;9.50;8.75;;;;;7.33;59.08;103067.84;2087960;28;47204;-61
2022/01/21 04:58:35;;;;;;;;;7.20;5.80;;;;;7.34;59.29;103068.75;2093474;28;47802;-61
2022/01/21 04:59:39;;;;;;;;;7.50;5.50;;;;;7.35;59.34;103067.88;2095868;28;46646;-60
2022/01/21 05:00:39;;;;;;;;;10.00;9.00;;;;;7.36;59.04;103064.41;2096164;28;47947;-61
2022/01/21 05:01:39;;;;;;;;;8.00;8.00;;;;;7.36;59.07;103064.41;2096192;28;47442;-61
2022/01/21 05:02:40;;;;;;;;;9.00;7.00;;;;;7.37;59.07;103071.50;2095893;28;47326;-61
2022/01/21 05:03:42;;;;;;;;;9.25;7.00;;;;;7.37;59.11;103074.13;2096154;28;46610;-61
2022/01/21 05:04:42;;;;;;;;;10.20;8.40;;;;;7.37;59.04;103074.13;2096042;28;47876;-61
2022/01/21 05:05:43;;;;;;;;;9.00;8.25;;;;;7.37;58.64;103076.78;2093851;28;47749;-61
2022/01/21 05:06:43;;;;;;;;;5.00;5.00;;;;;7.37;58.96;103072.41;2090984;28;46864;-61
2022/01/21 05:07:44;;;;;;;;;5.50;5.50;;;;;7.37;58.84;103064.47;2091507;28;47575;-61
2022/01/21 05:08:53;;;;;;;;;7.25;7.25;;;;;7.37;59.10;103064.47;2095058;28;47336;-61
2022/01/21 05:09:54;;;;;;;;;5.80;5.80;;;;;7.37;59.05;103072.41;2096043;28;47301;-61
2022/01/21 05:10:55;;;;;;;;;5.50;5.00;;;;;7.37;59.15;103075.03;2095254;28;47561;-61
2022/01/21 05:11:56;;;;;;;;;9.25;6.75;;;;;7.37;59.24;103075.03;2093226;28;47644;-61
2022/01/21 05:12:57;;;;;;;;;8.80;7.20;;;;;7.37;59.05;103076.78;2092051;28;47274;-60
2022/01/21 05:14:09;;;;;;;;;3.75;3.50;;;;;7.37;59.19;103077.69;2088665;28;47091;-61
2022/01/21 05:15:19;;;;;;;;;11.40;9.40;;;;;7.38;59.15;103086.50;2092294;28;47778;-62
2022/01/21 05:16:33;;;;;;;;;10.80;7.40;;;;;7.36;59.24;103077.59;2091136;28;47036;-61
2022/01/21 05:17:42;;;;;;;;;7.60;7.60;;;;;7.38;59.07;103073.28;2087765;28;47679;-61
2022/01/21 05:18:43;;;;;;;;;8.25;7.75;;;;;7.37;59.17;103072.41;2087042;28;46456;-61
2022/01/21 05:19:43;;;;;;;;;8.00;6.50;;;;;7.37;59.11;103071.50;2094183;28;47053;-61
2022/01/21 05:20:43;;;;;;;;;6.00;6.00;;;;;7.36;59.12;103065.28;2095998;28;47626;-62
2022/01/21 05:21:46;;;;;;;;;8.75;5.50;;;;;7.36;59.13;103069.69;2088304;28;47571;-60
2022/01/21 05:22:46;;;;;;;;;9.60;7.80;;;;;7.36;59.31;103078.50;2089913;28;48057;-60
2022/01/21 05:23:47;;;;;;;;;10.00;8.50;;;;;7.36;59.34;103072.31;2088408;28;47675;-61
2022/01/21 05:24:47;;;;;;;;;8.00;5.75;;;;;7.35;59.12;103076.72;2088598;28;47480;-61
2022/01/21 05:25:48;;;;;;;;;9.00;6.50;;;;;7.36;59.11;103074.97;2087195;28;47198;-61
2022/01/21 05:26:56;;;;;;;;;7.50;6.25;;;;;7.36;59.22;103078.50;2086100;28;47257;-61
2022/01/21 05:27:59;;;;;;;;;6.40;5.00;;;;;7.37;59.17;103082.06;2087368;28;47214;-62
2022/01/21 05:28:59;;;;;;;;;7.80;7.60;;;;;7.36;59.15;103075.84;2091523;28;46353;-61
2022/01/21 05:29:59;;;;;;;;;5.50;5.50;;;;;7.37;59.06;103077.69;2089723;28;47841;-61
2022/01/21 05:31:00;;;;;;;;;3.75;3.75;;;;;7.37;59.07;103080.31;2092314;28;46166;-60
2022/01/21 05:32:02;;;;;;;;;6.00;6.00;;;;;7.37;59.22;103080.31;2092293;28;46737;-62
2022/01/21 05:33:03;;;;;;;;;5.60;5.60;;;;;7.37;59.21;103080.31;2094898;28;47803;-61
2022/01/21 05:34:03;;;;;;;;;9.25;8.00;;;;;7.36;59.09;103077.59;2091771;28;47457;-61
2022/01/21 05:35:05;;;;;;;;;5.25;5.00;;;;;7.36;59.18;103080.25;2090497;28;47926;-61